Time,TemperatureF,DewpointF,PressureIn,WindDirection,WindDirectionDegrees,WindSpeedMPH,WindSpeedGustMPH,Humidity,HourlyPrecipIn,Conditions,Clouds,dailyrainin,SolarRadiationWatts/m^2,SoftwareType,DateUTC
2013-05-08 00:02:00,51.7,44.4,29.99,ENE,63,2.3,2.3,76,0.00,CLR,,0.00,0.0,WeatherDisplay:10.37,2013-05-08 05:02:00,
2013-05-08 00:07:00,51.7,44.7,29.99,ENE,63,1.1,1.1,77,0.00,CLR,,0.00,0.0,WeatherDisplay:10.37,2013-05-08 05:07:00,
2013-05-08 00:12:00,51.8,44.8,29.99,ENE,63,2.3,2.3,77,0.00,CLR,,0.00,0.0,WeatherDisplay:10.37,2013-05-08 05:12:00,
2013-05-08 00:17:00,52.0,44.7,29.99,ENE,63,0.0,0.0,76,0.00,CLR,,0.00,0.0,WeatherDisplay:10.37,2013-05-08 05:17:00,
2013-05-08 00:22:00,51.9,44.6,29.99,ENE,63,2.3,2.3,76,0.00,CLR,,0.00,0.0,WeatherDisplay:10.37,2013-05-08 05:22:00,
2013-05-08 00:27:00,51.8,44.5,29.99,ENE,63,2.3,2.3,76,0.00,CLR,,0.00,0.0,WeatherDisplay:10.37,2013-05-08 05:27:00,
2013-05-08 00:32:00,51.3,44.3,29.99,ENE,63,3.5,3.5,77,0.00,CLR,,0.00,0.0,WeatherDisplay:10.37,2013-05-08 05:32:00,
2013-05-08 00:37:00,51.0,44.4,29.99,ENE,63,3.5,3.5,78,0.00,CLR,,0.00,0.0,WeatherDisplay:10.37,2013-05-08 05:37:00,
2013-05-08 00:42:00,50.6,44.3,29.99,NE,51,3.5,3.5,79,0.00,CLR,,0.00,0.0,WeatherDisplay:10.37,2013-05-08 05:42:00,
2013-05-08 00:47:00,50.5,44.2,29.99,NE,51,3.5,3.5,79,0.00,CLR,,0.00,0.0,WeatherDisplay:10.37,2013-05-08 05:47:00,
2013-05-08 00:52:00,50.4,44.1,29.99,NE,51,3.5,3.5,79,0.00,CLR,,0.00,0.0,WeatherDisplay:10.37,2013-05-08 05:52:00,
2013-05-08 00:57:00,50.4,44.1,29.99,NE,51,3.5,3.5,79,0.00,CLR,,0.00,0.0,WeatherDisplay:10.37,2013-05-08 05:57:00,
2013-05-08 01:02:00,50.3,44.0,29.98,NE,51,3.5,3.5,79,0.00,CLR,,0.00,0.0,WeatherDisplay:10.37,2013-05-08 06:02:00,
2013-05-08 01:07:00,50.2,44.3,29.98,NE,51,3.5,3.5,80,0.00,CLR,,0.00,0.0,WeatherDisplay:10.37,2013-05-08 06:07:00,
2013-05-08 01:12:00,50.2,44.3,29.98,NE,51,2.3,2.3,80,0.00,CLR,,0.00,0.0,WeatherDisplay:10.37,2013-05-08 06:12:00,
2013-05-08 01:17:00,50.2,44.3,29.98,NE,51,1.1,1.1,80,0.00,CLR,,0.00,0.0,WeatherDisplay:10.37,2013-05-08 06:17:00,
2013-05-08 01:22:00,50.3,44.4,29.98,NE,51,1.1,1.1,80,0.00,CLR,,0.00,0.0,WeatherDisplay:10.37,2013-05-08 06:22:00,
2013-05-08 01:27:00,50.3,44.4,29.98,NE,51,3.5,3.5,80,0.00,CLR,,0.00,0.0,WeatherDisplay:10.37,2013-05-08 06:27:00,
2013-05-08 01:32:00,50.3,44.4,29.98,NNW,342,3.5,3.5,80,0.00,CLR,,0.00,0.0,WeatherDisplay:10.37,2013-05-08 06:32:00,
2013-05-08 01:37:00,50.2,44.3,29.98,NNW,342,3.5,3.5,80,0.00,CLR,,0.00,0.0,WeatherDisplay:10.37,2013-05-08 06:37:00,
2013-05-08 01:42:00,50.0,44.1,29.98,NNW,342,3.5,3.5,80,0.00,CLR,,0.00,0.0,WeatherDisplay:10.37,2013-05-08 06:42:00,
2013-05-08 01:47:00,49.9,44.3,29.98,NNW,341,4.6,4.6,81,0.00,CLR,,0.00,0.0,WeatherDisplay:10.37,2013-05-08 06:47:00,
2013-05-08 01:52:00,49.7,44.1,29.98,NNW,332,6.0,6.0,81,0.00,CLR,,0.00,0.0,WeatherDisplay:10.37,2013-05-08 06:52:00,
2013-05-08 01:57:00,49.7,44.4,29.98,NNW,339,3.5,3.5,82,0.00,CLR,,0.00,0.0,WeatherDisplay:10.37,2013-05-08 06:57:00,
2013-05-08 02:02:00,49.7,44.1,29.98,NNW,339,3.5,3.5,81,0.00,CLR,,0.00,0.0,WeatherDisplay:10.37,2013-05-08 07:02:00,
2013-05-08 02:07:00,49.5,43.9,29.97,NNW,340,3.5,3.5,81,0.00,CLR,,0.00,0.0,WeatherDisplay:10.37,2013-05-08 07:07:00,
2013-05-08 02:12:00,49.5,44.2,29.97,NNW,340,3.5,3.5,82,0.00,CLR,,0.00,0.0,WeatherDisplay:10.37,2013-05-08 07:12:00,
2013-05-08 02:17:00,49.5,43.9,29.98,NNW,340,2.3,2.3,81,0.00,CLR,,0.00,0.0,WeatherDisplay:10.37,2013-05-08 07:17:00,
2013-05-08 02:22:00,49.4,44.1,29.98,NNW,340,3.5,3.5,82,0.00,CLR,,0.00,0.0,WeatherDisplay:10.37,2013-05-08 07:22:00,
2013-05-08 02:27:00,49.7,44.4,29.98,NNW,340,3.5,3.5,82,0.00,CLR,,0.00,0.0,WeatherDisplay:10.37,2013-05-08 07:27:00,
2013-05-08 02:32:00,50.2,44.9,29.97,NNW,340,3.5,3.5,82,0.00,CLR,,0.00,0.0,WeatherDisplay:10.37,2013-05-08 07:32:00,
2013-05-08 02:37:00,50.2,44.6,29.97,NNW,340,3.5,3.5,81,0.00,CLR,,0.00,0.0,WeatherDisplay:10.37,2013-05-08 07:37:00,
2013-05-08 02:42:00,50.2,44.6,29.97,NNW,340,3.5,3.5,81,0.00,CLR,,0.00,0.0,WeatherDisplay:10.37,2013-05-08 07:42:00,
2013-05-08 02:47:00,50.2,44.6,29.97,NNW,340,3.5,3.5,81,0.00,CLR,,0.00,0.0,WeatherDisplay:10.37,2013-05-08 07:47:00,
2013-05-08 02:52:00,50.0,44.4,29.97,NNW,340,3.5,3.5,81,0.00,CLR,,0.00,0.0,WeatherDisplay:10.37,2013-05-08 07:52:00,
2013-05-08 02:57:00,49.9,44.3,29.97,NNW,340,3.5,3.5,81,0.00,CLR,,0.00,0.0,WeatherDisplay:10.37,2013-05-08 07:57:00,
2013-05-08 03:02:00,49.9,44.6,29.97,NNW,340,2.3,2.3,82,0.00,CLR,,0.00,0.0,WeatherDisplay:10.37,2013-05-08 08:02:00,
2013-05-08 03:07:00,49.7,44.1,29.97,NNW,340,0.0,0.0,81,0.00,CLR,,0.00,0.0,WeatherDisplay:10.37,2013-05-08 08:07:00,
2013-05-08 03:12:00,49.5,44.2,29.97,NNW,340,0.0,0.0,82,0.00,CLR,,0.00,0.0,WeatherDisplay:10.37,2013-05-08 08:12:00,
2013-05-08 03:17:00,49.6,44.3,29.97,NNW,340,1.1,1.1,82,0.00,CLR,,0.00,0.0,WeatherDisplay:10.37,2013-05-08 08:17:00,
2013-05-08 03:22:00,49.6,44.3,29.97,NNW,340,3.0,3.0,82,0.00,CLR,,0.00,0.0,WeatherDisplay:10.37,2013-05-08 08:22:00,
2013-05-08 03:27:00,49.6,44.3,29.97,NNW,340,2.3,2.3,82,0.00,CLR,,0.00,0.0,WeatherDisplay:10.37,2013-05-08 08:27:00,
2013-05-08 03:32:00,49.6,44.3,29.97,NNW,340,3.5,3.5,82,0.00,CLR,,0.00,0.0,WeatherDisplay:10.37,2013-05-08 08:32:00,
2013-05-08 03:37:00,49.6,44.3,29.97,NNW,340,2.3,2.3,82,0.00,CLR,,0.00,0.0,WeatherDisplay:10.37,2013-05-08 08:37:00,
2013-05-08 03:42:00,49.8,44.5,29.97,NNW,340,1.1,1.1,82,0.00,CLR,,0.00,0.0,WeatherDisplay:10.37,2013-05-08 08:42:00,
2013-05-08 03:47:00,49.9,44.6,29.97,NNW,340,2.3,2.3,82,0.00,CLR,,0.00,0.0,WeatherDisplay:10.37,2013-05-08 08:47:00,
2013-05-08 03:52:00,49.8,44.5,29.97,NNW,340,2.3,2.3,82,0.00,CLR,,0.00,0.0,WeatherDisplay:10.37,2013-05-08 08:52:00,
2013-05-08 03:57:00,49.7,44.4,29.97,NNW,340,2.3,2.3,82,0.00,CLR,,0.00,0.0,WeatherDisplay:10.37,2013-05-08 08:57:00,
2013-05-08 04:02:00,49.9,44.6,29.97,NNW,340,2.3,2.3,82,0.00,CLR,,0.00,0.0,WeatherDisplay:10.37,2013-05-08 09:02:00,
2013-05-08 04:07:00,50.1,44.8,29.98,NNW,340,2.3,2.3,82,0.00,CLR,,0.00,0.0,WeatherDisplay:10.37,2013-05-08 09:07:00,
2013-05-08 04:12:00,50.4,44.8,29.98,NNW,340,3.5,3.5,81,0.00,CLR,,0.00,0.0,WeatherDisplay:10.37,2013-05-08 09:12:00,
2013-05-08 04:17:00,50.5,44.6,29.98,NNW,340,1.1,0.0,80,0.00,CLR,,0.00,0.0,WeatherDisplay:10.37,2013-05-08 09:17:00,
2013-05-08 04:22:00,50.2,44.3,29.98,NNW,340,2.3,2.3,80,0.00,CLR,,0.00,0.0,WeatherDisplay:10.37,2013-05-08 09:22:00,
2013-05-08 04:27:00,49.9,44.3,29.98,NNW,340,2.3,2.3,81,0.00,CLR,,0.00,0.0,WeatherDisplay:10.37,2013-05-08 09:27:00,
2013-05-08 04:32:00,49.8,44.2,29.98,NNW,340,1.1,1.1,81,0.00,CLR,,0.00,0.0,WeatherDisplay:10.37,2013-05-08 09:32:00,
2013-05-08 04:37:00,49.6,44.3,29.98,NNW,340,2.0,2.0,82,0.00,CLR,,0.00,0.0,WeatherDisplay:10.37,2013-05-08 09:37:00,
2013-05-08 04:42:00,49.8,44.5,29.98,NNW,340,2.3,2.3,82,0.00,CLR,,0.00,0.0,WeatherDisplay:10.37,2013-05-08 09:42:00,
2013-05-08 04:47:00,50.0,44.4,29.98,NNW,340,1.1,1.1,81,0.00,CLR,,0.00,0.0,WeatherDisplay:10.37,2013-05-08 09:47:00,
2013-05-08 04:52:00,49.9,44.0,29.98,NNW,340,2.3,2.3,80,0.00,CLR,,0.00,0.0,WeatherDisplay:10.37,2013-05-08 09:52:00,
2013-05-08 04:57:00,49.8,44.2,29.98,NNW,340,2.3,2.3,81,0.00,CLR,,0.00,0.0,WeatherDisplay:10.37,2013-05-08 09:57:00,
2013-05-08 05:02:00,49.7,44.1,29.98,NNW,340,3.5,3.5,81,0.00,CLR,,0.00,0.0,WeatherDisplay:10.37,2013-05-08 10:02:00,
2013-05-08 05:07:00,49.8,44.5,29.98,NNW,340,3.5,3.5,82,0.00,CLR,,0.00,0.0,WeatherDisplay:10.37,2013-05-08 10:07:00,
2013-05-08 05:12:00,49.7,44.1,29.98,NNW,340,3.5,3.5,81,0.00,CLR,,0.00,0.0,WeatherDisplay:10.37,2013-05-08 10:12:00,
2013-05-08 05:17:00,49.6,44.0,29.98,NNW,340,3.5,3.5,81,0.00,CLR,,0.00,0.0,WeatherDisplay:10.37,2013-05-08 10:17:00,
2013-05-08 05:22:00,49.3,44.0,29.99,NNW,340,3.5,3.5,82,0.00,CLR,,0.00,0.0,WeatherDisplay:10.37,2013-05-08 10:22:00,
2013-05-08 05:27:00,49.2,44.3,29.99,NNW,340,3.5,3.5,83,0.00,CLR,,0.00,0.0,WeatherDisplay:10.37,2013-05-08 10:27:00,
2013-05-08 05:32:00,49.1,44.2,29.99,NNW,340,4.0,4.0,83,0.00,CLR,,0.00,0.0,WeatherDisplay:10.37,2013-05-08 10:32:00,
2013-05-08 05:37:00,49.2,44.3,29.99,NNW,340,3.5,3.5,83,0.00,CLR,,0.00,0.0,WeatherDisplay:10.37,2013-05-08 10:37:00,
2013-05-08 05:43:00,49.0,44.1,29.99,NNW,340,3.5,3.5,83,0.00,CLR,,0.00,0.0,WeatherDisplay:10.37,2013-05-08 10:43:00,
2013-05-08 05:48:00,48.8,43.9,29.99,NNW,340,3.5,3.5,83,0.00,CLR,,0.00,5.0,WeatherDisplay:10.37,2013-05-08 10:48:00,
2013-05-08 05:53:00,48.9,44.3,30.00,NNW,340,3.5,3.5,84,0.00,CLR,,0.00,7.0,WeatherDisplay:10.37,2013-05-08 10:53:00,
2013-05-08 05:58:00,49.2,44.3,30.00,NNW,340,2.3,2.3,83,0.00,CLR,,0.00,9.0,WeatherDisplay:10.37,2013-05-08 10:58:00,
2013-05-08 06:03:00,49.5,44.2,30.00,NNW,340,2.3,2.3,82,0.00,CLR,,0.00,12.0,WeatherDisplay:10.37,2013-05-08 11:03:00,
2013-05-08 06:08:00,49.7,44.4,30.00,NNW,340,2.3,2.3,82,0.00,CLR,,0.00,14.0,WeatherDisplay:10.37,2013-05-08 11:08:00,
2013-05-08 06:13:00,50.0,44.7,30.00,NNW,340,3.5,3.5,82,0.00,CLR,,0.00,18.0,WeatherDisplay:10.37,2013-05-08 11:13:00,
2013-05-08 06:18:00,50.2,44.9,30.00,NNW,340,3.5,3.5,82,0.00,CLR,,0.00,21.0,WeatherDisplay:10.37,2013-05-08 11:18:00,
2013-05-08 06:23:00,50.4,45.4,30.01,NNW,340,2.3,2.3,83,0.00,CLR,,0.00,23.0,WeatherDisplay:10.37,2013-05-08 11:23:00,
2013-05-08 06:28:00,50.8,46.1,30.01,NNW,340,1.1,1.1,84,0.00,CLR,,0.00,25.0,WeatherDisplay:10.37,2013-05-08 11:28:00,
2013-05-08 06:33:00,51.2,46.2,30.01,NNW,340,2.3,2.3,83,0.00,CLR,,0.00,25.0,WeatherDisplay:10.37,2013-05-08 11:33:00,
2013-05-08 06:38:00,51.7,46.7,30.01,NNW,340,3.5,3.5,83,0.00,CLR,,0.00,25.0,WeatherDisplay:10.37,2013-05-08 11:38:00,
2013-05-08 06:43:00,52.1,46.8,30.01,NNW,340,3.5,3.5,82,0.00,CLR,,0.00,25.0,WeatherDisplay:10.37,2013-05-08 11:43:00,
2013-05-08 06:48:00,52.4,46.7,30.01,NNW,340,2.3,2.3,81,0.00,CLR,,0.00,26.0,WeatherDisplay:10.37,2013-05-08 11:48:00,
2013-05-08 06:53:00,52.9,47.6,30.01,NNW,340,1.1,1.1,82,0.00,CLR,,0.00,28.0,WeatherDisplay:10.37,2013-05-08 11:53:00,
2013-05-08 06:58:00,53.5,48.1,30.02,NNW,340,2.3,2.3,82,0.00,CLR,,0.00,30.0,WeatherDisplay:10.37,2013-05-08 11:58:00,
2013-05-08 07:03:00,54.2,47.8,30.02,NNW,342,3.5,3.5,79,0.00,CLR,,0.00,32.0,WeatherDisplay:10.37,2013-05-08 12:03:00,
2013-05-08 07:08:00,54.9,48.5,30.02,NNW,345,2.3,2.3,79,0.00,CLR,,0.00,33.0,WeatherDisplay:10.37,2013-05-08 12:08:00,
2013-05-08 07:13:00,55.5,48.4,30.02,NW,325,3.5,3.5,77,0.00,CLR,,0.00,35.0,WeatherDisplay:10.37,2013-05-08 12:13:00,
2013-05-08 07:18:00,56.1,48.3,30.02,NNW,337,3.5,3.5,75,0.00,CLR,,0.00,37.0,WeatherDisplay:10.37,2013-05-08 12:18:00,
2013-05-08 07:23:00,56.7,48.9,30.02,North,349,2.3,2.3,75,0.00,CLR,,0.00,39.0,WeatherDisplay:10.37,2013-05-08 12:23:00,
2013-05-08 07:28:00,57.8,49.2,30.02,North,355,3.5,3.5,73,0.00,CLR,,0.00,49.0,WeatherDisplay:10.37,2013-05-08 12:28:00,
2013-05-08 07:33:00,58.9,50.3,30.02,North,5,2.3,2.3,73,0.00,CLR,,0.00,76.0,WeatherDisplay:10.37,2013-05-08 12:33:00,
2013-05-08 07:38:00,59.8,50.0,30.02,North,5,3.5,3.5,70,0.00,CLR,,0.00,123.0,WeatherDisplay:10.37,2013-05-08 12:38:00,
2013-05-08 07:43:00,60.5,50.3,30.02,NNE,22,2.3,2.3,69,0.00,CLR,,0.00,181.0,WeatherDisplay:10.37,2013-05-08 12:43:00,
2013-05-08 07:48:00,61.2,50.2,30.02,NNE,22,1.1,1.1,67,0.00,CLR,,0.00,244.0,WeatherDisplay:10.37,2013-05-08 12:48:00,
2013-05-08 07:53:00,61.9,50.4,30.02,NE,53,1.1,0.0,66,0.00,CLR,,0.00,290.0,WeatherDisplay:10.37,2013-05-08 12:53:00,
2013-05-08 07:58:00,62.6,49.8,30.02,NE,53,1.1,1.1,63,0.00,CLR,,0.00,336.0,WeatherDisplay:10.37,2013-05-08 12:58:00,
2013-05-08 08:03:00,63.3,50.5,30.02,NE,53,2.3,2.3,63,0.00,CLR,,0.00,355.0,WeatherDisplay:10.37,2013-05-08 13:03:00,
2013-05-08 08:08:00,64.0,51.1,30.02,WNW,303,1.1,1.1,63,0.00,CLR,,0.00,369.0,WeatherDisplay:10.37,2013-05-08 13:08:00,
2013-05-08 08:13:00,64.3,50.6,30.02,WNW,300,2.3,2.3,61,0.00,CLR,,0.00,387.0,WeatherDisplay:10.37,2013-05-08 13:13:00,
2013-05-08 08:18:00,64.6,50.8,30.02,South,177,2.3,2.3,61,0.00,CLR,,0.00,403.0,WeatherDisplay:10.37,2013-05-08 13:18:00,
2013-05-08 08:23:00,65.0,52.1,30.02,South,170,2.3,2.3,63,0.00,CLR,,0.00,415.0,WeatherDisplay:10.37,2013-05-08 13:23:00,
2013-05-08 08:28:00,65.2,52.3,30.02,South,177,2.3,2.3,63,0.00,CLR,,0.00,432.0,WeatherDisplay:10.37,2013-05-08 13:28:00,
2013-05-08 08:33:00,65.4,52.5,30.02,SSE,165,3.5,3.5,63,0.00,CLR,,0.00,448.0,WeatherDisplay:10.37,2013-05-08 13:33:00,
2013-05-08 08:38:00,65.7,53.2,30.02,SE,145,3.5,3.5,64,0.00,CLR,,0.00,461.0,WeatherDisplay:10.37,2013-05-08 13:38:00,
2013-05-08 08:43:00,66.2,53.7,30.02,SSE,159,3.5,3.5,64,0.00,CLR,,0.00,478.0,WeatherDisplay:10.37,2013-05-08 13:43:00,
2013-05-08 08:48:00,66.6,54.0,30.02,SSE,167,3.0,3.0,64,0.00,CLR,,0.00,492.0,WeatherDisplay:10.37,2013-05-08 13:48:00,
2013-05-08 08:53:00,67.2,53.7,30.02,SSE,167,4.0,4.0,62,0.00,CLR,,0.00,508.0,WeatherDisplay:10.37,2013-05-08 13:53:00,
2013-05-08 08:58:00,67.8,53.9,30.02,WNW,303,3.5,3.5,61,0.00,CLR,,0.00,524.0,WeatherDisplay:10.37,2013-05-08 13:58:00,
2013-05-08 09:03:00,68.2,54.2,30.02,SSW,196,3.5,3.5,61,0.00,CLR,,0.00,543.0,WeatherDisplay:10.37,2013-05-08 14:03:00,
2013-05-08 09:08:00,68.8,56.6,30.02,SSW,192,2.3,2.3,65,0.00,CLR,,0.00,555.0,WeatherDisplay:10.37,2013-05-08 14:08:00,
2013-05-08 09:13:00,69.4,54.4,30.02,SSW,199,3.5,3.5,59,0.00,CLR,,0.00,571.0,WeatherDisplay:10.37,2013-05-08 14:13:00,
2013-05-08 09:18:00,69.8,55.3,30.02,SSW,205,3.5,3.5,60,0.00,CLR,,0.00,585.0,WeatherDisplay:10.37,2013-05-08 14:18:00,
2013-05-08 09:23:00,70.2,56.6,30.02,SW,230,4.6,4.6,62,0.00,CLR,,0.00,599.0,WeatherDisplay:10.37,2013-05-08 14:23:00,
2013-05-08 09:28:00,70.6,56.0,30.02,WSW,238,3.5,3.5,60,0.00,CLR,,0.00,612.0,WeatherDisplay:10.37,2013-05-08 14:28:00,
2013-05-08 09:33:00,71.0,55.9,30.02,WSW,240,3.0,3.0,59,0.00,CLR,,0.00,624.0,WeatherDisplay:10.37,2013-05-08 14:33:00,
2013-05-08 09:38:00,71.3,55.3,30.02,WSW,252,2.3,2.3,57,0.00,CLR,,0.00,638.0,WeatherDisplay:10.37,2013-05-08 14:38:00,
2013-05-08 09:43:00,71.8,56.7,30.02,SW,215,3.5,3.5,59,0.00,CLR,,0.00,650.0,WeatherDisplay:10.37,2013-05-08 14:43:00,
2013-05-08 09:48:00,72.1,55.5,30.02,WNW,288,3.5,3.5,56,0.00,CLR,,0.00,659.0,WeatherDisplay:10.37,2013-05-08 14:48:00,
2013-05-08 09:53:00,72.4,54.8,30.02,WSW,245,3.5,3.5,54,0.00,CLR,,0.00,673.0,WeatherDisplay:10.37,2013-05-08 14:53:00,
2013-05-08 09:58:00,72.8,54.1,30.02,SSW,200,2.3,2.3,52,0.00,CLR,,0.00,691.0,WeatherDisplay:10.37,2013-05-08 14:58:00,
2013-05-08 10:03:00,73.7,56.0,30.02,SE,126,3.5,3.5,54,0.00,CLR,,0.00,701.0,WeatherDisplay:10.37,2013-05-08 15:03:00,
2013-05-08 10:08:00,74.3,56.1,30.02,North,11,3.5,3.5,53,0.00,CLR,,0.00,712.0,WeatherDisplay:10.37,2013-05-08 15:08:00,
2013-05-08 10:13:00,74.5,54.1,30.02,NNW,344,0.0,0.0,49,0.00,CLR,,0.00,717.0,WeatherDisplay:10.37,2013-05-08 15:13:00,
2013-05-08 10:18:00,74.9,55.6,30.01,WSW,252,4.6,4.6,51,0.00,CLR,,0.00,726.0,WeatherDisplay:10.37,2013-05-08 15:18:00,
2013-05-08 10:23:00,74.7,55.4,30.01,WNW,298,3.5,3.5,51,0.00,CLR,,0.00,740.0,WeatherDisplay:10.37,2013-05-08 15:23:00,
2013-05-08 10:28:00,74.5,54.1,30.01,WSW,239,2.3,2.3,49,0.00,CLR,,0.00,745.0,WeatherDisplay:10.37,2013-05-08 15:28:00,
2013-05-08 10:33:00,74.6,55.3,30.01,West,268,1.1,0.0,51,0.00,CLR,,0.00,763.0,WeatherDisplay:10.37,2013-05-08 15:33:00,
2013-05-08 10:38:00,75.0,55.6,30.01,West,270,3.5,3.5,51,0.00,CLR,,0.00,759.0,WeatherDisplay:10.37,2013-05-08 15:38:00,
2013-05-08 10:43:00,75.4,54.9,30.01,West,268,3.5,3.5,49,0.00,CLR,,0.00,784.0,WeatherDisplay:10.37,2013-05-08 15:43:00,
2013-05-08 10:48:00,75.8,54.7,30.01,North,5,4.6,4.6,48,0.00,CLR,,0.00,788.0,WeatherDisplay:10.37,2013-05-08 15:48:00,
2013-05-08 10:53:00,76.2,54.5,30.01,NW,313,8.1,8.1,47,0.00,CLR,,0.00,837.0,WeatherDisplay:10.37,2013-05-08 15:53:00,
2013-05-08 10:58:00,75.8,54.7,30.01,West,281,6.0,6.0,48,0.00,CLR,,0.00,819.0,WeatherDisplay:10.37,2013-05-08 15:58:00,
2013-05-08 11:03:00,75.5,53.9,30.00,SW,235,3.5,3.5,47,0.00,CLR,,0.00,148.0,WeatherDisplay:10.37,2013-05-08 16:03:00,
2013-05-08 11:08:00,75.1,54.6,30.01,SW,229,2.3,2.3,49,0.00,CLR,,0.00,195.0,WeatherDisplay:10.37,2013-05-08 16:08:00,
2013-05-08 11:13:00,75.4,54.9,30.00,South,190,3.5,3.5,49,0.00,CLR,,0.00,898.0,WeatherDisplay:10.37,2013-05-08 16:13:00,
2013-05-08 11:18:00,76.0,53.7,30.00,SSW,200,6.0,6.0,46,0.00,CLR,,0.00,882.0,WeatherDisplay:10.37,2013-05-08 16:18:00,
2013-05-08 11:23:00,75.8,53.5,30.01,WNW,296,3.5,3.5,46,0.00,CLR,,0.00,183.0,WeatherDisplay:10.37,2013-05-08 16:23:00,
2013-05-08 11:28:00,75.6,53.9,30.00,NW,309,3.5,3.5,47,0.00,CLR,,0.00,870.0,WeatherDisplay:10.37,2013-05-08 16:28:00,
2013-05-08 11:33:00,75.7,54.0,30.00,NNW,336,5.8,5.8,47,0.00,CLR,,0.00,415.0,WeatherDisplay:10.37,2013-05-08 16:33:00,
2013-05-08 11:38:00,75.5,53.3,30.00,North,350,3.5,3.5,46,0.00,CLR,,0.00,846.0,WeatherDisplay:10.37,2013-05-08 16:38:00,
2013-05-08 11:43:00,75.8,56.4,30.00,SW,221,3.5,3.5,51,0.00,CLR,,0.00,918.0,WeatherDisplay:10.37,2013-05-08 16:43:00,
2013-05-08 11:48:00,76.6,56.0,30.00,North,360,5.8,5.8,49,0.00,CLR,,0.00,951.0,WeatherDisplay:10.37,2013-05-08 16:48:00,
2013-05-08 11:53:00,76.9,53.9,30.00,West,266,8.1,8.1,45,0.00,CLR,,0.00,918.0,WeatherDisplay:10.37,2013-05-08 16:53:00,
2013-05-08 11:58:00,77.4,53.1,30.00,NNE,15,8.1,8.1,43,0.00,CLR,,0.00,912.0,WeatherDisplay:10.37,2013-05-08 16:58:00,
2013-05-08 12:03:00,77.7,54.0,30.00,North,351,7.0,7.0,44,0.00,CLR,,0.00,928.0,WeatherDisplay:10.37,2013-05-08 17:03:00,
2013-05-08 12:08:00,77.8,52.9,29.99,NW,310,4.6,4.6,42,0.00,CLR,,0.00,956.0,WeatherDisplay:10.37,2013-05-08 17:08:00,
2013-05-08 12:13:00,77.8,52.2,29.99,NNW,348,4.6,4.6,41,0.00,CLR,,0.00,949.0,WeatherDisplay:10.37,2013-05-08 17:13:00,
2013-05-08 12:18:00,78.2,53.9,29.99,NNE,25,5.8,5.8,43,0.00,CLR,,0.00,956.0,WeatherDisplay:10.37,2013-05-08 17:18:00,
2013-05-08 12:24:00,78.8,53.8,29.99,WSW,239,5.8,5.8,42,0.00,CLR,,0.00,963.0,WeatherDisplay:10.37,2013-05-08 17:24:00,
2013-05-08 12:29:00,78.7,53.7,29.99,West,273,5.8,5.8,42,0.00,CLR,,0.00,962.0,WeatherDisplay:10.37,2013-05-08 17:29:00,
2013-05-08 12:34:00,78.8,54.4,29.99,WNW,300,4.6,4.6,43,0.00,CLR,,0.00,976.0,WeatherDisplay:10.37,2013-05-08 17:34:00,
2013-05-08 12:39:00,78.7,54.3,29.98,WSW,243,9.2,9.2,43,0.00,CLR,,0.00,976.0,WeatherDisplay:10.37,2013-05-08 17:39:00,
2013-05-08 12:44:00,78.7,54.3,29.98,NW,304,3.5,3.5,43,0.00,CLR,,0.00,993.0,WeatherDisplay:10.37,2013-05-08 17:44:00,
2013-05-08 12:49:00,79.1,54.0,29.98,SW,234,6.9,6.9,42,0.00,CLR,,0.00,981.0,WeatherDisplay:10.37,2013-05-08 17:49:00,
2013-05-08 12:54:00,79.1,52.0,29.98,SSW,202,5.0,5.0,39,0.00,CLR,,0.00,1005.0,WeatherDisplay:10.37,2013-05-08 17:54:00,
2013-05-08 12:59:00,78.8,51.0,29.98,SSW,209,4.6,4.6,38,0.00,CLR,,0.00,1002.0,WeatherDisplay:10.37,2013-05-08 17:59:00,
2013-05-08 13:04:00,78.7,54.3,29.98,SSW,210,3.5,3.5,43,0.00,CLR,,0.00,1002.0,WeatherDisplay:10.37,2013-05-08 18:04:00,
2013-05-08 13:09:00,78.5,53.5,29.98,WNW,285,5.8,5.8,42,0.00,CLR,,0.00,1021.0,WeatherDisplay:10.37,2013-05-08 18:09:00,
2013-05-08 13:14:00,78.9,53.2,29.98,NW,317,4.6,4.6,41,0.00,CLR,,0.00,1053.0,WeatherDisplay:10.37,2013-05-08 18:14:00,
2013-05-08 13:19:00,78.9,51.8,29.97,NNW,340,5.8,5.8,39,0.00,CLR,,0.00,283.0,WeatherDisplay:10.37,2013-05-08 18:19:00,
2013-05-08 13:24:00,78.3,52.0,29.97,NNW,344,4.6,4.6,40,0.00,CLR,,0.00,258.0,WeatherDisplay:10.37,2013-05-08 18:24:00,
2013-05-08 13:29:00,77.8,51.5,29.97,NNW,346,3.5,3.5,40,0.00,CLR,,0.00,239.0,WeatherDisplay:10.37,2013-05-08 18:29:00,
2013-05-08 13:34:00,77.6,52.0,29.97,NNW,331,3.5,3.5,41,0.00,CLR,,0.00,250.0,WeatherDisplay:10.37,2013-05-08 18:34:00,
2013-05-08 13:39:00,77.5,51.9,29.97,WNW,296,4.6,4.6,41,0.00,CLR,,0.00,269.0,WeatherDisplay:10.37,2013-05-08 18:39:00,
2013-05-08 13:44:00,77.5,52.6,29.97,West,279,4.0,4.0,42,0.00,CLR,,0.00,353.0,WeatherDisplay:10.37,2013-05-08 18:44:00,
2013-05-08 13:49:00,77.8,52.9,29.97,NW,309,3.5,3.5,42,0.00,SCT,,0.00,998.0,WeatherDisplay:10.37,2013-05-08 18:49:00,
2013-05-08 13:54:00,78.6,53.6,29.97,NNW,333,5.8,5.8,42,0.00,SCT,,0.00,297.0,WeatherDisplay:10.37,2013-05-08 18:54:00,
2013-05-08 13:59:00,78.2,51.2,29.97,NNW,328,8.1,8.1,39,0.00,SCT,,0.00,283.0,WeatherDisplay:10.37,2013-05-08 18:59:00,
2013-05-08 14:04:00,77.7,50.8,29.97,NNW,342,4.6,4.6,39,0.00,SCT,,0.00,311.0,WeatherDisplay:10.37,2013-05-08 19:04:00,
2013-05-08 14:09:00,77.6,51.4,29.97,NNW,337,3.0,3.0,40,0.00,SCT,,0.00,267.0,WeatherDisplay:10.37,2013-05-08 19:09:00,
2013-05-08 14:14:00,77.5,51.3,29.97,NNW,347,5.8,5.8,40,0.00,SCT,,0.00,260.0,WeatherDisplay:10.37,2013-05-08 19:14:00,
2013-05-08 14:19:00,77.5,51.3,29.97,North,355,8.1,8.1,40,0.00,SCT,,0.00,279.0,WeatherDisplay:10.37,2013-05-08 19:19:00,
2013-05-08 14:24:00,77.4,51.9,29.97,NW,308,6.9,6.9,41,0.00,SCT,,0.00,345.0,WeatherDisplay:10.37,2013-05-08 19:24:00,
2013-05-08 14:29:00,77.8,50.2,29.96,North,355,3.5,3.5,38,0.00,SCT,,0.00,304.0,WeatherDisplay:10.37,2013-05-08 19:29:00,
2013-05-08 14:34:00,77.8,51.5,29.96,NW,315,4.6,4.6,40,0.00,CLR,,0.00,306.0,WeatherDisplay:10.37,2013-05-08 19:34:00,
2013-05-08 14:39:00,77.7,51.5,29.96,WNW,300,3.5,3.5,40,0.00,CLR,,0.00,327.0,WeatherDisplay:10.37,2013-05-08 19:39:00,
2013-05-08 14:44:00,77.9,51.6,29.96,NE,42,8.1,8.1,40,0.00,CLR,,0.00,316.0,WeatherDisplay:10.37,2013-05-08 19:44:00,
2013-05-08 14:49:00,78.3,50.6,29.96,North,5,9.2,9.2,38,0.00,BKN,,0.00,870.0,WeatherDisplay:10.37,2013-05-08 19:49:00,
2013-05-08 14:54:00,79.0,50.5,29.96,NNW,329,3.5,3.5,37,0.00,BKN,,0.00,828.0,WeatherDisplay:10.37,2013-05-08 19:54:00,
2013-05-08 14:59:00,79.8,54.0,29.96,NNW,329,17.0,17.0,41,0.00,BKN,,0.00,779.0,WeatherDisplay:10.37,2013-05-08 19:59:00,
2013-05-08 15:04:00,80.3,51.7,29.95,North,355,8.1,8.1,37,0.00,BKN,,0.00,773.0,WeatherDisplay:10.37,2013-05-08 20:04:00,
2013-05-08 15:09:00,80.2,53.0,29.95,NW,321,4.6,4.6,39,0.00,BKN,,0.00,765.0,WeatherDisplay:10.37,2013-05-08 20:09:00,
2013-05-08 15:14:00,80.1,50.7,29.95,NW,317,9.2,9.2,36,0.00,BKN,,0.00,752.0,WeatherDisplay:10.37,2013-05-08 20:14:00,
2013-05-08 15:19:00,80.1,50.0,29.95,NW,324,6.9,6.9,35,0.00,BKN,,0.00,740.0,WeatherDisplay:10.37,2013-05-08 20:19:00,
2013-05-08 15:24:00,80.2,50.8,29.95,North,10,8.1,8.1,36,0.00,BKN,,0.00,729.0,WeatherDisplay:10.37,2013-05-08 20:24:00,
2013-05-08 15:29:00,80.4,50.2,29.94,North,355,9.2,9.2,35,0.00,BKN,,0.00,719.0,WeatherDisplay:10.37,2013-05-08 20:29:00,
2013-05-08 15:34:00,80.5,48.7,29.94,North,5,3.5,3.6,33,0.00,BKN,,0.00,710.0,WeatherDisplay:10.37,2013-05-08 20:34:00,
2013-05-08 15:39:00,80.7,48.9,29.94,NNW,345,1.1,0.0,33,0.00,BKN,,0.00,694.0,WeatherDisplay:10.37,2013-05-08 20:39:00,
2013-05-08 15:44:00,81.1,49.3,29.94,NNW,327,7.0,7.0,33,0.00,BKN,,0.00,691.0,WeatherDisplay:10.37,2013-05-08 20:44:00,
2013-05-08 15:49:00,81.0,50.8,29.94,WNW,296,8.1,8.1,35,0.00,BKN,,0.00,689.0,WeatherDisplay:10.37,2013-05-08 20:49:00,
2013-05-08 15:54:00,80.9,52.2,29.94,North,5,9.0,9.0,37,0.00,BKN,,0.00,673.0,WeatherDisplay:10.37,2013-05-08 20:54:00,
2013-05-08 15:59:00,80.9,50.7,29.94,NE,40,6.0,6.0,35,0.00,BKN,,0.00,664.0,WeatherDisplay:10.37,2013-05-08 20:59:00,
2013-05-08 16:04:00,80.9,49.9,29.93,North,9,4.0,4.0,34,0.00,SCT,,0.00,649.0,WeatherDisplay:10.37,2013-05-08 21:04:00,
2013-05-08 16:09:00,80.9,49.1,29.93,NNW,348,4.6,4.6,33,0.00,SCT,,0.00,181.0,WeatherDisplay:10.37,2013-05-08 21:09:00,
2013-05-08 16:14:00,80.4,48.7,29.93,NW,316,3.5,3.6,33,0.00,SCT,,0.00,598.0,WeatherDisplay:10.37,2013-05-08 21:14:00,
2013-05-08 16:19:00,80.4,51.0,29.93,NW,320,5.0,5.0,36,0.00,SCT,,0.00,596.0,WeatherDisplay:10.37,2013-05-08 21:19:00,
2013-05-08 16:24:00,79.9,47.4,29.93,NW,326,3.5,3.5,32,0.00,SCT,,0.00,392.0,WeatherDisplay:10.37,2013-05-08 21:24:00,
2013-05-08 16:29:00,79.4,48.6,29.93,North,9,6.9,6.9,34,0.00,SCT,,0.00,139.0,WeatherDisplay:10.37,2013-05-08 21:29:00,
2013-05-08 16:34:00,78.6,47.9,29.93,NE,53,2.3,2.3,34,0.00,SCT,,0.00,132.0,WeatherDisplay:10.37,2013-05-08 21:34:00,
2013-05-08 16:39:00,78.1,49.7,29.93,North,355,9.0,9.0,37,0.00,SCT,,0.00,269.0,WeatherDisplay:10.37,2013-05-08 21:39:00,
2013-05-08 16:44:00,78.0,51.0,29.93,NE,41,9.0,9.0,39,0.00,SCT,,0.00,151.0,WeatherDisplay:10.37,2013-05-08 21:44:00,
2013-05-08 16:49:00,78.0,49.6,29.93,NNE,19,9.2,9.2,37,0.00,SCT,,0.00,158.0,WeatherDisplay:10.37,2013-05-08 21:49:00,
2013-05-08 16:54:00,78.1,49.7,29.93,NNE,26,9.2,9.2,37,0.00,SCT,,0.00,466.0,WeatherDisplay:10.37,2013-05-08 21:54:00,
2013-05-08 16:59:00,78.9,50.4,29.93,NE,52,9.2,9.2,37,0.00,SCT,,0.00,399.0,WeatherDisplay:10.37,2013-05-08 21:59:00,
2013-05-08 17:04:00,79.5,50.2,29.93,ENE,65,7.0,7.0,36,0.00,SCT,,0.00,385.0,WeatherDisplay:10.37,2013-05-08 22:04:00,
2013-05-08 17:09:00,79.8,48.9,29.93,ENE,74,9.2,9.2,34,0.00,SCT,,0.00,390.0,WeatherDisplay:10.37,2013-05-08 22:09:00,
2013-05-08 17:14:00,79.8,49.7,29.93,ENE,59,9.2,9.2,35,0.00,SCT,,0.00,436.0,WeatherDisplay:10.37,2013-05-08 22:14:00,
2013-05-08 17:19:00,79.7,50.4,29.93,East,90,3.5,3.5,36,0.00,SCT,,0.00,336.0,WeatherDisplay:10.37,2013-05-08 22:19:00,
2013-05-08 17:24:00,79.6,53.1,29.93,East,98,8.1,8.1,40,0.00,SCT,,0.00,311.0,WeatherDisplay:10.37,2013-05-08 22:24:00,
2013-05-08 17:29:00,79.0,52.6,29.93,ENE,69,11.5,11.5,40,0.00,SCT,,0.00,345.0,WeatherDisplay:10.37,2013-05-08 22:29:00,
2013-05-08 17:34:00,79.0,52.6,29.93,NE,38,11.5,11.5,40,0.00,CLR,,0.00,383.0,WeatherDisplay:10.37,2013-05-08 22:34:00,
2013-05-08 17:39:00,78.9,52.5,29.93,ENE,65,9.2,9.2,40,0.00,CLR,,0.00,309.0,WeatherDisplay:10.37,2013-05-08 22:39:00,
2013-05-08 17:44:00,78.9,52.5,29.93,NE,41,9.2,9.2,40,0.00,CLR,,0.00,288.0,WeatherDisplay:10.37,2013-05-08 22:44:00,
2013-05-08 17:49:00,78.7,51.7,29.94,NE,52,11.5,11.5,39,0.00,CLR,,0.00,272.0,WeatherDisplay:10.37,2013-05-08 22:49:00,
2013-05-08 17:54:00,78.5,52.2,29.94,ENE,57,10.4,10.4,40,0.00,CLR,,0.00,276.0,WeatherDisplay:10.37,2013-05-08 22:54:00,
2013-05-08 18:00:00,78.4,52.7,29.94,NE,51,10.4,10.4,41,0.00,CLR,,0.00,209.0,WeatherDisplay:10.37,2013-05-08 23:00:00,
2013-05-08 18:05:00,77.9,52.3,29.94,NNE,27,10.4,10.4,41,0.00,SCT,,0.00,144.0,WeatherDisplay:10.37,2013-05-08 23:05:00,
2013-05-08 18:10:00,77.5,53.2,29.94,ENE,57,11.0,11.0,43,0.00,SCT,,0.00,155.0,WeatherDisplay:10.37,2013-05-08 23:10:00,
2013-05-08 18:15:00,77.1,52.2,29.93,NNE,15,10.4,10.4,42,0.00,SCT,,0.00,162.0,WeatherDisplay:10.37,2013-05-08 23:15:00,
2013-05-08 18:20:00,77.0,52.1,29.94,NE,38,9.2,9.2,42,0.00,SCT,,0.00,190.0,WeatherDisplay:10.37,2013-05-08 23:20:00,
2013-05-08 18:25:00,76.8,52.0,29.94,NE,46,9.2,9.2,42,0.00,SCT,,0.00,162.0,WeatherDisplay:10.37,2013-05-08 23:25:00,
2013-05-08 18:30:00,76.6,51.8,29.94,NE,34,11.5,11.5,42,0.00,SCT,,0.00,105.0,WeatherDisplay:10.37,2013-05-08 23:30:00,
2013-05-08 18:35:00,76.2,52.1,29.94,NE,35,8.1,8.1,43,0.00,BKN,,0.00,93.0,WeatherDisplay:10.37,2013-05-08 23:35:00,
2013-05-08 18:40:00,75.8,51.7,29.94,ENE,71,9.2,9.2,43,0.00,BKN,,0.00,83.0,WeatherDisplay:10.37,2013-05-08 23:40:00,
2013-05-08 18:45:00,75.4,52.0,29.94,NE,40,6.9,6.9,44,0.00,BKN,,0.00,76.0,WeatherDisplay:10.37,2013-05-08 23:45:00,
2013-05-08 18:50:00,75.0,51.6,29.94,NE,42,8.1,8.1,44,0.00,SCT,,0.00,69.0,WeatherDisplay:10.37,2013-05-08 23:50:00,
2013-05-08 18:55:00,74.5,51.2,29.94,ENE,57,9.2,9.2,44,0.00,SCT,,0.00,62.0,WeatherDisplay:10.37,2013-05-08 23:55:00,
2013-05-08 19:00:00,74.3,51.6,29.94,ENE,57,8.1,8.1,45,0.00,SCT,,0.00,53.0,WeatherDisplay:10.37,2013-05-09 00:00:00,
2013-05-08 19:05:00,73.9,50.6,29.94,NE,49,10.4,10.4,44,0.00,CLR,,0.00,46.0,WeatherDisplay:10.37,2013-05-09 00:05:00,
2013-05-08 19:10:00,73.5,50.9,29.94,NE,54,8.1,8.1,45,0.00,CLR,,0.00,37.0,WeatherDisplay:10.37,2013-05-09 00:10:00,
2013-05-08 19:15:00,73.2,51.2,29.94,NE,43,4.6,4.6,46,0.00,CLR,,0.00,33.0,WeatherDisplay:10.37,2013-05-09 00:15:00,
2013-05-08 19:20:00,72.6,51.2,29.94,NE,42,4.6,4.6,47,0.00,CLR,,0.00,28.0,WeatherDisplay:10.37,2013-05-09 00:20:00,
2013-05-08 19:25:00,72.0,51.2,29.94,NNE,32,6.9,6.9,48,0.00,CLR,,0.00,23.0,WeatherDisplay:10.37,2013-05-09 00:25:00,
2013-05-08 19:30:00,71.3,51.1,29.94,NE,46,5.8,5.8,49,0.00,CLR,,0.00,18.0,WeatherDisplay:10.37,2013-05-09 00:30:00,
2013-05-08 19:35:00,70.9,50.8,29.94,ESE,117,4.6,4.6,49,0.00,CLR,,0.00,14.0,WeatherDisplay:10.37,2013-05-09 00:35:00,
2013-05-08 19:40:00,70.6,50.0,29.94,ENE,62,7.0,7.0,48,0.00,CLR,,0.00,11.0,WeatherDisplay:10.37,2013-05-09 00:40:00,
2013-05-08 19:45:00,70.4,49.8,29.94,ENE,68,6.9,6.9,48,0.00,CLR,,0.00,7.0,WeatherDisplay:10.37,2013-05-09 00:45:00,
2013-05-08 19:50:00,70.2,50.1,29.94,NE,56,4.6,4.6,49,0.00,CLR,,0.00,0.0,WeatherDisplay:10.37,2013-05-09 00:50:00,
2013-05-08 19:55:00,69.7,49.7,29.94,NE,52,4.6,4.6,49,0.00,CLR,,0.00,0.0,WeatherDisplay:10.37,2013-05-09 00:55:00,
2013-05-08 20:00:00,69.1,49.7,29.95,NE,49,4.6,4.6,50,0.00,CLR,,0.00,0.0,WeatherDisplay:10.37,2013-05-09 01:00:00,
2013-05-08 20:05:00,68.6,49.7,29.95,NE,43,4.0,4.0,51,0.00,CLR,,0.00,0.0,WeatherDisplay:10.37,2013-05-09 01:05:00,
2013-05-08 20:10:00,68.0,50.2,29.95,NE,44,3.5,3.5,53,0.00,CLR,,0.00,0.0,WeatherDisplay:10.37,2013-05-09 01:10:00,
2013-05-08 20:15:00,67.4,50.2,29.95,NE,46,3.5,3.5,54,0.00,CLR,,0.00,0.0,WeatherDisplay:10.37,2013-05-09 01:15:00,
2013-05-08 20:20:00,67.0,49.8,29.95,NE,50,3.5,3.5,54,0.00,CLR,,0.00,0.0,WeatherDisplay:10.37,2013-05-09 01:20:00,
2013-05-08 20:25:00,66.8,50.1,29.95,NE,50,3.5,3.5,55,0.00,CLR,,0.00,0.0,WeatherDisplay:10.37,2013-05-09 01:25:00,
2013-05-08 20:30:00,66.5,49.8,29.95,NE,50,3.5,3.5,55,0.00,CLR,,0.00,0.0,WeatherDisplay:10.37,2013-05-09 01:30:00,
2013-05-08 20:35:00,66.0,49.8,29.95,NE,50,3.5,3.5,56,0.00,SCT,,0.00,0.0,WeatherDisplay:10.37,2013-05-09 01:35:00,
2013-05-08 20:40:00,65.5,49.9,29.96,NE,50,3.5,3.5,57,0.00,SCT,,0.00,0.0,WeatherDisplay:10.37,2013-05-09 01:40:00,
2013-05-08 20:45:00,65.2,50.0,29.96,NE,50,2.3,2.3,58,0.00,SCT,,0.00,0.0,WeatherDisplay:10.37,2013-05-09 01:45:00,
2013-05-08 20:50:00,64.8,50.1,29.96,NE,50,2.3,2.3,59,0.00,BKN,,0.00,0.0,WeatherDisplay:10.37,2013-05-09 01:50:00,
2013-05-08 20:55:00,64.5,49.8,29.96,NE,50,1.0,1.0,59,0.00,BKN,,0.00,0.0,WeatherDisplay:10.37,2013-05-09 01:55:00,
2013-05-08 21:00:00,64.4,49.8,29.97,NE,50,2.3,2.3,59,0.00,BKN,,0.00,0.0,WeatherDisplay:10.37,2013-05-09 02:00:00,
2013-05-08 21:05:00,64.3,49.7,29.97,NE,50,2.3,2.3,59,0.00,BKN,,0.00,0.0,WeatherDisplay:10.37,2013-05-09 02:05:00,
2013-05-08 21:10:00,64.2,50.0,29.97,NE,50,3.5,3.5,60,0.00,BKN,,0.00,0.0,WeatherDisplay:10.37,2013-05-09 02:10:00,
2013-05-08 21:15:00,64.0,49.8,29.97,NE,50,2.3,2.3,60,0.00,BKN,,0.00,0.0,WeatherDisplay:10.37,2013-05-09 02:15:00,
2013-05-08 21:20:00,63.6,49.5,29.97,NE,50,3.5,3.5,60,0.00,BKN,,0.00,0.0,WeatherDisplay:10.37,2013-05-09 02:20:00,
2013-05-08 21:25:00,63.1,49.0,29.97,NE,47,2.3,2.3,60,0.00,BKN,,0.00,0.0,WeatherDisplay:10.37,2013-05-09 02:25:00,
2013-05-08 21:30:00,62.8,49.1,29.97,NE,47,2.3,2.3,61,0.00,BKN,,0.00,0.0,WeatherDisplay:10.37,2013-05-09 02:30:00,
2013-05-08 21:35:00,62.6,49.0,29.97,NE,47,2.3,2.3,61,0.00,BKN,,0.00,0.0,WeatherDisplay:10.37,2013-05-09 02:35:00,
2013-05-08 21:40:00,62.4,49.2,29.97,NE,47,2.3,2.3,62,0.00,BKN,,0.00,0.0,WeatherDisplay:10.37,2013-05-09 02:40:00,
2013-05-08 21:45:00,62.1,49.4,29.97,NE,48,1.1,1.1,63,0.00,BKN,,0.00,0.0,WeatherDisplay:10.37,2013-05-09 02:45:00,
2013-05-08 21:50:00,62.0,49.7,29.97,NE,47,0.0,0.0,64,0.00,BKN,,0.00,0.0,WeatherDisplay:10.37,2013-05-09 02:50:00,
2013-05-08 21:55:00,61.9,49.2,29.97,NE,47,0.0,0.0,63,0.00,BKN,,0.00,0.0,WeatherDisplay:10.37,2013-05-09 02:55:00,
2013-05-08 22:00:00,61.8,49.5,29.97,NE,47,0.0,0.0,64,0.00,BKN,,0.00,0.0,WeatherDisplay:10.37,2013-05-09 03:00:00,
2013-05-08 22:05:00,61.9,49.2,29.97,NE,47,0.0,0.0,63,0.00,BKN,,0.00,0.0,WeatherDisplay:10.37,2013-05-09 03:05:00,
2013-05-08 22:10:00,61.8,49.5,29.97,NE,47,0.0,0.0,64,0.00,BKN,,0.00,0.0,WeatherDisplay:10.37,2013-05-09 03:10:00,
2013-05-08 22:15:00,61.7,49.4,29.97,NE,47,0.0,0.0,64,0.00,BKN,,0.00,0.0,WeatherDisplay:10.37,2013-05-09 03:15:00,
2013-05-08 22:20:00,61.7,49.4,29.97,NE,48,0.0,0.0,64,0.00,CLR,,0.00,0.0,WeatherDisplay:10.37,2013-05-09 03:20:00,
2013-05-08 22:25:00,61.6,49.3,29.97,NE,47,0.0,0.0,64,0.00,CLR,,0.00,0.0,WeatherDisplay:10.37,2013-05-09 03:25:00,
2013-05-08 22:30:00,61.4,49.5,29.97,NE,47,0.0,0.0,65,0.00,CLR,,0.00,0.0,WeatherDisplay:10.37,2013-05-09 03:30:00,
2013-05-08 22:35:00,61.4,49.5,29.97,NE,47,0.0,0.0,65,0.00,CLR,,0.00,0.0,WeatherDisplay:10.37,2013-05-09 03:35:00,
2013-05-08 22:40:00,61.4,49.5,29.97,NE,47,0.0,0.0,65,0.00,CLR,,0.00,0.0,WeatherDisplay:10.37,2013-05-09 03:40:00,
2013-05-08 22:45:00,61.3,49.4,29.97,NE,47,0.0,0.0,65,0.00,CLR,,0.00,0.0,WeatherDisplay:10.37,2013-05-09 03:45:00,
2013-05-08 22:50:00,61.2,49.3,29.97,NE,47,0.0,0.0,65,0.00,CLR,,0.00,0.0,WeatherDisplay:10.37,2013-05-09 03:50:00,
2013-05-08 22:55:00,61.1,49.2,29.96,NE,47,0.0,0.0,65,0.00,CLR,,0.00,0.0,WeatherDisplay:10.37,2013-05-09 03:55:00,
2013-05-08 23:00:00,60.9,49.1,29.97,NE,48,0.0,0.0,65,0.00,CLR,,0.00,0.0,WeatherDisplay:10.37,2013-05-09 04:00:00,
2013-05-08 23:01:00,60.9,49.1,29.97,NE,47,0.0,0.0,65,0.00,CLR,,0.00,0.0,WeatherDisplay:10.37,2013-05-09 04:01:00,
2013-05-08 23:06:00,60.6,49.2,29.97,NE,47,0.0,0.0,66,0.00,CLR,,0.00,0.0,WeatherDisplay:10.37,2013-05-09 04:06:00,
2013-05-08 23:11:00,60.1,49.1,29.97,NE,47,0.0,0.0,67,0.00,CLR,,0.00,0.0,WeatherDisplay:10.37,2013-05-09 04:11:00,
2013-05-08 23:16:00,59.5,48.9,29.97,NE,47,0.0,0.0,68,0.00,CLR,,0.00,0.0,WeatherDisplay:10.37,2013-05-09 04:16:00,
2013-05-08 23:21:00,58.9,48.7,29.96,NE,47,0.0,0.0,69,0.00,CLR,,0.00,0.0,WeatherDisplay:10.37,2013-05-09 04:21:00,
2013-05-08 23:26:00,58.6,48.8,29.96,NE,47,3.5,3.5,70,0.00,CLR,,0.00,0.0,WeatherDisplay:10.37,2013-05-09 04:26:00,
2013-05-08 23:31:00,58.4,48.7,29.96,NE,47,2.0,2.0,70,0.00,CLR,,0.00,0.0,WeatherDisplay:10.37,2013-05-09 04:31:00,
2013-05-08 23:36:00,58.4,49.0,29.96,NE,47,1.1,0.0,71,0.00,CLR,,0.00,0.0,WeatherDisplay:10.37,2013-05-09 04:36:00,
2013-05-08 23:41:00,58.4,48.7,29.96,NE,47,0.0,0.0,70,0.00,CLR,,0.00,0.0,WeatherDisplay:10.37,2013-05-09 04:41:00,
2013-05-08 23:46:00,58.5,48.7,29.96,NE,47,0.0,0.0,70,0.00,CLR,,0.00,0.0,WeatherDisplay:10.37,2013-05-09 04:46:00,
2013-05-08 23:51:00,58.4,48.7,29.96,NE,47,0.0,0.0,70,0.00,CLR,,0.00,0.0,WeatherDisplay:10.37,2013-05-09 04:51:00,
2013-05-08 23:56:00,58.2,48.8,29.96,NE,47,0.0,0.0,71,0.00,CLR,,0.00,0.0,WeatherDisplay:10.37,2013-05-09 04:56:00,